Spriggs Payne Airport

Jump to: basic info | weather | frequencies | runways | comments

Related pages: nearby airports | nearby navaids | notams | map

Basic information (top)

Codes: MLW GLMR
Location: lon 6.289060, lat -10.758700, elev 25 ft / 8 m msl
Status: medium_airport
Scheduled airline service: yes
Links: Wikipedia Mobile

Weather (top)

Current conditions for Roberts International Airport 24nm (44km) E (rec'd 2014/10/30 21:30Z):

GLRB 302130Z 00000KT 9999 SCT012 FEW023 CB BKN100 24/23 Q1013 RMK CB-NW

Airport forecast for Roberts International Airport 24nm (44km) E (rec'd 2014/10/30 18:54Z):

TAF TAF GLRB 301600Z 3018/3124 23010KT 9999 BKN018 FEW026CB 
      BECMG 3020/3022 19008KT 7000 RA/TSRA SCT005 BKN014 FEW023CB 
      TEMPO 3023/3104 00000KT 9000 BKN013 FEW023CB

Frequencies (top)

Verify before use: may be inaccurate or out of date.

APP: 124.5 MHz (ROBERTS APP)
TWR: 118.7 MHz (SPRIGGS TWR)

Runways (top)

05/23: 6,000 x 100 ft (1,829 x 30 m) — paved — lighted — threshold 05 displaced 200 ft (61 m) — threshold 23 displaced 200 ft (61 m)

Latest comments (top)

No comments yet for Spriggs Payne Airport

More... (top)

See also NOTAMs and nearby airports and navaids, or visit the Spriggs Payne Airport page at the main OurAirports website..